In Rescue
 
Open Full Screen Window  High Contrast Mode
Wind Gusting 15 knots
10
April 20, 2024 9:23 AM CDT
Weather Information
Wind Direction
  290 °
Wind Speed
  10 kt (12 mph)
Wind Gust
  15 kt (17 mph)
Altimeter
30.38 in
Visibility
10 SM
Temperature
01° C
34° F
Dewpoint
-03° C
27° F
Humidity
75%
Sky Condition
Overcast @ 3,300 ft
VFR

METAR KCNB 201423Z AUTO 29010G15KT 10SM OVC033 01/M03 A3038 RMK AO2 T00101027

FAA Disclaimer: The data displayed is for advisory purposes only and is not to be used for flight planning or operations.